Time;durP1;ratioP1;P1;durP2;ratioP2;P2;SDS_P1;SDS_P2;PMS_P1;PMS_P2;Temp;Humidity;BMP_temperature;BMP_pressure;BME280_temperature;BME280_humidity;BME280_pressure;Samples;Min_cycle;Max_cycle;Signal;HPM_P1;HPM_P2
2021/12/15 00:01:34;;;;;;;0.45;0.45;;;10.00;99.90;;;;;;5075886;28;20040;-79
2021/12/15 00:04:00;;;;;;;1.15;0.30;;;10.00;99.90;;;;;;5059152;28;20466;-80
2021/12/15 00:06:26;;;;;;;1.55;0.88;;;10.00;99.90;;;;;;5075896;28;20094;-80
2021/12/15 00:08:54;;;;;;;1.70;1.02;;;10.00;99.90;;;;;;5075267;28;20045;-80
2021/12/15 00:11:21;;;;;;;0.95;0.20;;;10.00;99.90;;;;;;5058672;28;20061;-79
2021/12/15 00:13:48;;;;;;;0.57;0.52;;;10.00;99.90;;;;;;5058796;28;20052;-80
2021/12/15 00:16:15;;;;;;;0.50;0.50;;;10.10;99.90;;;;;;5075535;28;20052;-80
2021/12/15 00:18:44;;;;;;;0.30;0.30;;;10.00;99.90;;;;;;5058369;28;20139;-80
2021/12/15 00:21:13;;;;;;;1.15;0.85;;;10.00;99.90;;;;;;5074773;28;20037;-79
2021/12/15 00:23:39;;;;;;;0.75;0.47;;;10.00;99.90;;;;;;5058120;28;20086;-79
2021/12/15 00:26:05;;;;;;;1.17;0.70;;;10.10;99.90;;;;;;5057836;28;20052;-79
2021/12/15 00:28:32;;;;;;;1.85;1.13;;;10.00;99.90;;;;;;5074517;28;20440;-79
2021/12/15 00:30:59;;;;;;;0.30;0.30;;;10.00;99.90;;;;;;5074917;28;20044;-79
2021/12/15 00:33:24;;;;;;;1.55;0.90;;;10.00;99.90;;;;;;5074765;28;20114;-78
2021/12/15 00:35:50;;;;;;;2.30;1.00;;;10.00;99.90;;;;;;5057593;28;20147;-79
2021/12/15 00:38:16;;;;;;;4.15;0.70;;;10.00;99.90;;;;;;5057697;28;20052;-79
2021/12/15 00:40:42;;;;;;;0.28;0.25;;;10.00;99.90;;;;;;5057663;28;20040;-79
2021/12/15 00:43:08;;;;;;;1.55;1.42;;;10.00;99.90;;;;;;5057409;28;20084;-79
2021/12/15 00:45:33;;;;;;;0.32;0.32;;;10.00;99.90;;;;;;5074540;28;20056;-79
2021/12/15 00:47:59;;;;;;;3.83;0.95;;;10.00;99.90;;;;;;5057872;28;20431;-79
2021/12/15 00:50:29;;;;;;;2.13;0.57;;;10.10;99.90;;;;;;5074523;28;20541;-79
2021/12/15 00:52:55;;;;;;;3.10;2.30;;;10.00;99.90;;;;;;5074268;28;20060;-79
2021/12/15 00:55:23;;;;;;;0.38;0.38;;;9.90;99.90;;;;;;5074299;28;20056;-79
2021/12/15 00:57:49;;;;;;;0.98;0.75;;;10.10;99.90;;;;;;5058137;28;20056;-79
2021/12/15 01:00:28;;;;;;;1.00;1.00;;;10.10;99.90;;;;;;5074262;28;20548;-79
2021/12/15 01:02:54;;;;;;;0.65;0.65;;;10.10;99.90;;;;;;5074298;28;20109;-79
2021/12/15 01:05:23;;;;;;;0.30;0.30;;;10.00;99.90;;;;;;5074125;28;20044;-79
2021/12/15 01:07:49;;;;;;;0.22;0.22;;;10.10;99.90;;;;;;5057128;28;20446;-79
2021/12/15 01:10:22;;;;;;;0.22;0.20;;;10.00;99.90;;;;;;5057447;28;20045;-79
2021/12/15 01:20:57;;;;;;;0.25;0.25;;;10.00;99.90;;;;;;5074496;28;20044;-79
2021/12/15 01:23:27;;;;;;;2.08;0.85;;;10.00;99.90;;;;;;5074530;28;20430;-79
2021/12/15 01:26:03;;;;;;;0.63;0.47;;;10.10;99.90;;;;;;5074289;28;20052;-79
2021/12/15 01:28:30;;;;;;;0.40;0.40;;;10.10;99.90;;;;;;5073748;28;20137;-80
2021/12/15 01:30:58;;;;;;;2.88;1.38;;;10.10;99.90;;;;;;5057445;28;20048;-79
2021/12/15 01:33:26;;;;;;;2.58;1.67;;;10.10;99.90;;;;;;5057077;28;20503;-79
2021/12/15 01:35:54;;;;;;;2.28;1.20;;;10.10;99.90;;;;;;5074052;28;20045;-79
2021/12/15 01:38:22;;;;;;;1.17;0.57;;;10.10;99.90;;;;;;5073808;28;20095;-79
2021/12/15 01:40:49;;;;;;;0.10;0.10;;;10.10;99.90;;;;;;5073396;28;20548;-79
2021/12/15 01:43:37;;;;;;;0.10;0.10;;;10.10;99.90;;;;;;5073044;28;20059;-79
2021/12/15 01:48:58;;;;;;;1.35;0.75;;;10.10;99.90;;;;;;5073456;28;20098;-79
2021/12/15 01:51:24;;;;;;;4.30;1.08;;;10.00;99.90;;;;;;5073182;28;20060;-79
2021/12/15 01:53:50;;;;;;;1.95;1.30;;;10.00;99.90;;;;;;5056224;28;20061;-78
2021/12/15 01:56:16;;;;;;;0.63;0.30;;;10.10;99.90;;;;;;5056628;28;20051;-79
2021/12/15 01:58:41;;;;;;;2.33;0.45;;;10.10;99.90;;;;;;5056200;28;20087;-78
2021/12/15 02:01:10;;;;;;;0.55;0.50;;;10.10;99.90;;;;;;5056401;28;20045;-78
2021/12/15 02:03:36;;;;;;;1.05;1.05;;;10.00;99.90;;;;;;5073081;28;20047;-78
2021/12/15 02:06:04;;;;;;;1.10;0.73;;;10.00;99.90;;;;;;5072909;28;20477;-78
2021/12/15 02:08:29;;;;;;;0.22;0.20;;;10.00;99.90;;;;;;5073040;28;20131;-78
2021/12/15 02:10:55;;;;;;;0.40;0.40;;;10.00;99.90;;;;;;5056125;28;20144;-78
2021/12/15 02:13:21;;;;;;;4.47;0.20;;;10.00;99.90;;;;;;5072859;28;20041;-79
2021/12/15 02:15:59;;;;;;;0.38;0.35;;;10.00;99.90;;;;;;5056093;28;20068;-79
2021/12/15 02:18:29;;;;;;;0.40;0.40;;;10.10;99.90;;;;;;5056140;28;20048;-79
2021/12/15 02:21:02;;;;;;;4.25;0.93;;;10.00;99.90;;;;;;5055949;28;20080;-79
2021/12/15 02:23:35;;;;;;;0.40;0.40;;;10.00;99.90;;;;;;5056562;28;20057;-79
2021/12/15 02:26:07;;;;;;;0.20;0.20;;;10.00;99.90;;;;;;5056387;28;20060;-79
2021/12/15 02:28:32;;;;;;;1.20;1.17;;;10.00;99.90;;;;;;5073020;28;20041;-78
2021/12/15 02:31:15;;;;;;;0.20;0.20;;;10.00;99.90;;;;;;5072399;28;20056;-79
2021/12/15 02:39:01;;;;;;;4.88;0.45;;;10.00;99.90;;;;;;5072360;28;20084;-78
2021/12/15 02:41:29;;;;;;;0.28;0.20;;;10.00;99.90;;;;;;5055811;28;20053;-79
2021/12/15 02:44:25;;;;;;;0.10;0.10;;;10.00;99.90;;;;;;5055577;28;20159;-79
2021/12/15 02:46:53;;;;;;;0.88;0.55;;;10.00;99.90;;;;;;5035068;28;20052;-79
2021/12/15 02:49:24;;;;;;;0.20;0.15;;;9.90;99.90;;;;;;5035322;28;20514;-78
2021/12/15 02:51:53;;;;;;;0.20;0.20;;;10.00;99.90;;;;;;5034831;28;20424;-79
2021/12/15 02:54:20;;;;;;;0.10;0.10;;;10.00;99.90;;;;;;5018080;28;20068;-78
2021/12/15 02:56:50;;;;;;;4.65;1.38;;;10.00;99.90;;;;;;5035208;28;20056;-79
2021/12/15 02:59:21;;;;;;;1.42;1.00;;;10.00;99.90;;;;;;5038520;28;20137;-78
2021/12/15 03:07:27;;;;;;;1.25;0.55;;;10.00;99.90;;;;;;5039063;28;20041;-78
2021/12/15 03:15:42;;;;;;;1.08;1.02;;;9.90;99.90;;;;;;4960711;28;20058;-79
2021/12/15 03:18:15;;;;;;;4.82;2.95;;;9.90;99.90;;;;;;4960276;28;20076;-78
2021/12/15 03:20:49;;;;;;;0.40;0.40;;;9.90;99.90;;;;;;4960494;28;20518;-79
2021/12/15 03:23:23;;;;;;;0.28;0.28;;;9.90;99.90;;;;;;4970191;28;20054;-78
2021/12/15 03:25:49;;;;;;;0.30;0.20;;;9.90;99.90;;;;;;4962900;28;20521;-79
2021/12/15 03:36:22;;;;;;;0.32;0.32;;;9.90;99.90;;;;;;4979711;28;20499;-79
2021/12/15 03:38:48;;;;;;;0.50;0.47;;;9.90;99.90;;;;;;4979695;28;20121;-79
2021/12/15 03:41:14;;;;;;;0.30;0.30;;;10.00;99.90;;;;;;4979464;28;20503;-79
2021/12/15 03:43:40;;;;;;;1.50;0.55;;;10.00;99.90;;;;;;5023852;28;20052;-79
2021/12/15 03:46:09;;;;;;;2.10;0.85;;;10.00;99.90;;;;;;5076046;28;20088;-79
2021/12/15 03:48:38;;;;;;;0.68;0.68;;;9.90;99.90;;;;;;5059213;28;20443;-79
2021/12/15 03:51:05;;;;;;;1.85;0.68;;;9.90;99.90;;;;;;5059259;28;20090;-79
2021/12/15 03:53:31;;;;;;;1.20;1.05;;;9.90;99.90;;;;;;5075396;28;20586;-79
2021/12/15 03:55:57;;;;;;;0.25;0.22;;;9.90;99.90;;;;;;5075653;28;20037;-79
2021/12/15 03:58:25;;;;;;;1.00;0.93;;;9.90;99.90;;;;;;5075709;28;20052;-79
2021/12/15 04:00:55;;;;;;;0.43;0.43;;;9.90;99.90;;;;;;5058606;28;20488;-79
2021/12/15 04:03:26;;;;;;;2.67;1.73;;;9.90;99.90;;;;;;5058859;28;20412;-79
2021/12/15 04:05:54;;;;;;;3.63;0.57;;;9.90;99.90;;;;;;5075573;28;20055;-79
2021/12/15 04:08:21;;;;;;;1.95;1.85;;;9.90;99.90;;;;;;5075125;28;20043;-79
2021/12/15 04:10:47;;;;;;;1.42;0.30;;;9.90;99.90;;;;;;5058229;28;20053;-79
2021/12/15 04:13:13;;;;;;;2.72;0.85;;;9.90;99.90;;;;;;5058285;28;20488;-79
2021/12/15 04:15:48;;;;;;;3.60;1.77;;;9.90;99.90;;;;;;5075342;28;20052;-79
2021/12/15 04:18:14;;;;;;;1.48;0.65;;;9.90;99.90;;;;;;5075338;28;20049;-79
2021/12/15 04:20:41;;;;;;;4.70;1.88;;;10.00;99.90;;;;;;5075309;28;20063;-79
2021/12/15 04:23:11;;;;;;;2.42;1.00;;;9.90;99.90;;;;;;5058439;28;20121;-79
2021/12/15 04:25:39;;;;;;;0.90;0.75;;;9.90;99.90;;;;;;5058412;28;20048;-79
2021/12/15 04:28:19;;;;;;;0.90;0.10;;;9.90;99.90;;;;;;5058178;28;20080;-79
2021/12/15 04:30:51;;;;;;;0.47;0.47;;;9.90;99.90;;;;;;5058359;28;20078;-79
2021/12/15 04:33:24;;;;;;;1.10;0.95;;;9.90;99.90;;;;;;5058472;28;20058;-79
2021/12/15 04:35:53;;;;;;;3.10;1.90;;;9.90;99.90;;;;;;5074900;28;20090;-79
2021/12/15 04:38:20;;;;;;;3.95;0.88;;;9.90;99.90;;;;;;5074680;28;20492;-79
2021/12/15 04:40:47;;;;;;;13.15;2.45;;;9.90;99.90;;;;;;5074535;28;20395;-79
2021/12/15 04:43:13;;;;;;;6.15;2.08;;;9.90;99.90;;;;;;5074124;28;20139;-79
2021/12/15 04:45:39;;;;;;;1.48;1.38;;;9.90;99.90;;;;;;5074502;28;20131;-80
2021/12/15 04:48:06;;;;;;;0.88;0.88;;;9.90;99.90;;;;;;5058692;28;20566;-80
2021/12/15 04:50:32;;;;;;;3.03;2.17;;;9.90;99.90;;;;;;5057809;28;20056;-80
2021/12/15 04:53:00;;;;;;;1.85;1.75;;;9.90;99.90;;;;;;5058177;28;20048;-80
2021/12/15 04:55:29;;;;;;;0.70;0.70;;;9.90;99.90;;;;;;5074329;28;20036;-80
2021/12/15 04:57:56;;;;;;;0.32;0.32;;;9.90;99.90;;;;;;5074557;28;20105;-80
2021/12/15 05:00:23;;;;;;;1.85;1.17;;;9.90;99.90;;;;;;5057731;28;20522;-80
2021/12/15 05:02:52;;;;;;;1.52;1.20;;;9.90;99.90;;;;;;5057282;28;20044;-80
2021/12/15 05:05:18;;;;;;;0.20;0.20;;;9.90;99.90;;;;;;5057576;28;20044;-80
2021/12/15 05:07:44;;;;;;;0.52;0.52;;;9.90;99.90;;;;;;5073989;28;20476;-80
2021/12/15 05:10:11;;;;;;;3.58;0.93;;;9.90;99.90;;;;;;5057647;28;20059;-80
2021/12/15 05:12:38;;;;;;;2.00;0.40;;;10.00;99.90;;;;;;5057403;28;20055;-80
2021/12/15 05:15:06;;;;;;;1.77;1.67;;;9.90;99.90;;;;;;5057367;28;20143;-80
2021/12/15 05:17:32;;;;;;;1.98;1.85;;;9.90;99.90;;;;;;5057214;28;20503;-80
2021/12/15 05:20:02;;;;;;;3.22;2.00;;;9.90;99.90;;;;;;5056605;28;20060;-80
2021/12/15 05:22:29;;;;;;;2.33;1.35;;;9.90;99.90;;;;;;5056707;28;20127;-80
2021/12/15 05:24:54;;;;;;;3.80;2.08;;;9.90;99.90;;;;;;5057517;28;20056;-80
2021/12/15 05:27:20;;;;;;;2.83;2.60;;;9.90;99.90;;;;;;5073988;28;20487;-80
2021/12/15 05:29:48;;;;;;;2.90;2.17;;;9.80;99.90;;;;;;5056993;28;20125;-80
2021/12/15 05:32:17;;;;;;;1.48;0.98;;;9.90;99.90;;;;;;5056895;28;20048;-80
2021/12/15 05:34:43;;;;;;;1.30;1.20;;;9.90;99.90;;;;;;5073570;28;20087;-80
2021/12/15 05:37:09;;;;;;;0.70;0.68;;;9.90;99.90;;;;;;5073704;28;20457;-80
2021/12/15 05:39:35;;;;;;;3.10;1.75;;;9.80;99.90;;;;;;5056835;28;20391;-80
2021/12/15 05:42:01;;;;;;;0.93;0.85;;;9.80;99.90;;;;;;5073062;28;20084;-80
2021/12/15 05:44:28;;;;;;;1.60;1.50;;;9.80;99.90;;;;;;5073673;28;20090;-80
2021/12/15 05:46:56;;;;;;;2.13;1.95;;;9.80;99.90;;;;;;5056823;28;20052;-80
2021/12/15 05:49:23;;;;;;;9.13;1.98;;;9.80;99.90;;;;;;5073478;28;20130;-79
2021/12/15 05:51:49;;;;;;;3.63;1.17;;;9.80;99.90;;;;;;5057396;28;20428;-79
2021/12/15 05:54:16;;;;;;;3.50;0.50;;;9.90;99.90;;;;;;5056995;28;20161;-79
2021/12/15 05:56:42;;;;;;;3.55;1.02;;;9.90;99.90;;;;;;5073325;28;20044;-79
2021/12/15 05:59:08;;;;;;;1.23;1.17;;;9.80;99.90;;;;;;5056597;28;20056;-79
2021/12/15 06:01:35;;;;;;;2.38;1.60;;;9.80;99.90;;;;;;5056265;28;20052;-79
2021/12/15 06:04:01;;;;;;;4.03;1.05;;;9.90;99.90;;;;;;5056459;28;20407;-79
2021/12/15 06:06:28;;;;;;;4.00;1.55;;;9.80;99.90;;;;;;5056455;28;20049;-80
2021/12/15 06:08:54;;;;;;;2.03;1.40;;;9.80;99.90;;;;;;5056402;28;20049;-80
2021/12/15 06:11:20;;;;;;;0.60;0.60;;;9.80;99.90;;;;;;5056426;28;20125;-80
2021/12/15 06:13:48;;;;;;;0.73;0.73;;;9.80;99.90;;;;;;5073095;28;20484;-80
2021/12/15 06:16:15;;;;;;;3.08;0.95;;;9.80;99.90;;;;;;5072923;28;20101;-80
2021/12/15 06:18:41;;;;;;;1.08;0.98;;;9.80;99.90;;;;;;5072875;28;20484;-80
2021/12/15 06:21:07;;;;;;;1.52;1.15;;;9.90;99.90;;;;;;5073563;28;20094;-80
2021/12/15 06:23:32;;;;;;;1.92;1.17;;;9.90;99.90;;;;;;5073056;28;20090;-80
2021/12/15 06:26:01;;;;;;;0.88;0.65;;;9.80;99.90;;;;;;5072943;28;20050;-80
2021/12/15 06:28:29;;;;;;;6.10;1.88;;;9.80;99.90;;;;;;5056324;28;20044;-80
2021/12/15 06:30:56;;;;;;;2.05;1.70;;;9.90;99.90;;;;;;5055837;28;20445;-80
2021/12/15 06:33:23;;;;;;;4.65;1.42;;;9.80;99.90;;;;;;5055277;28;20519;-80
2021/12/15 06:35:54;;;;;;;0.57;0.52;;;9.80;99.90;;;;;;5055860;28;20501;-80
2021/12/15 06:38:21;;;;;;;0.70;0.70;;;9.90;99.90;;;;;;5056283;28;20392;-80
2021/12/15 06:40:47;;;;;;;1.95;1.17;;;9.90;99.90;;;;;;5056004;28;20044;-80
2021/12/15 06:43:15;;;;;;;2.45;1.40;;;9.90;99.90;;;;;;5071873;28;20060;-80
2021/12/15 06:45:56;;;;;;;0.60;0.60;;;9.80;99.90;;;;;;5072563;28;20048;-80
2021/12/15 06:59:18;;;;;;;2.35;2.08;;;9.90;99.90;;;;;;5072564;28;20052;-79
2021/12/15 07:01:46;;;;;;;2.05;1.10;;;9.90;99.90;;;;;;5072301;28;20117;-79
2021/12/15 07:04:12;;;;;;;5.18;2.53;;;9.90;99.90;;;;;;5072573;28;20137;-79
2021/12/15 07:06:38;;;;;;;3.03;1.52;;;9.80;99.90;;;;;;5073129;28;20055;-79
2021/12/15 07:09:03;;;;;;;1.02;1.02;;;9.80;99.90;;;;;;5072765;28;20045;-79
2021/12/15 07:11:29;;;;;;;1.23;0.82;;;9.90;99.90;;;;;;5073101;28;20541;-79
2021/12/15 07:13:55;;;;;;;2.65;1.00;;;9.80;99.90;;;;;;5056399;28;20042;-79
2021/12/15 07:16:21;;;;;;;1.13;0.45;;;9.90;99.90;;;;;;5072680;28;20047;-81
2021/12/15 07:21:21;;;;;;;2.22;1.02;;;9.80;99.90;;;;;;5062734;28;20556;-82
2021/12/15 07:23:48;;;;;;;3.25;1.35;;;9.90;99.90;;;;;;5043585;28;20040;-84
2021/12/15 07:26:15;;;;;;;0.40;0.40;;;9.90;99.90;;;;;;5062272;28;20056;-83
2021/12/15 07:28:41;;;;;;;0.57;0.30;;;9.90;99.90;;;;;;5046609;28;20047;-83
2021/12/15 07:31:09;;;;;;;6.82;0.93;;;10.00;99.90;;;;;;5045028;28;20045;-84
2021/12/15 07:33:34;;;;;;;4.55;2.05;;;9.90;99.90;;;;;;5042465;28;20060;-84
2021/12/15 07:36:00;;;;;;;1.85;1.52;;;9.90;99.90;;;;;;5046351;28;20109;-83
2021/12/15 07:38:27;;;;;;;0.80;0.43;;;9.90;99.90;;;;;;5045604;28;20182;-82
2021/12/15 07:40:53;;;;;;;1.65;0.82;;;9.90;99.90;;;;;;5064944;28;20044;-83
2021/12/15 07:43:24;;;;;;;1.45;1.13;;;9.90;99.90;;;;;;5042876;28;20084;-83
2021/12/15 07:45:54;;;;;;;2.65;2.05;;;9.90;99.90;;;;;;5048275;28;20049;-82
2021/12/15 07:48:23;;;;;;;0.73;0.73;;;10.00;99.90;;;;;;5049574;28;20120;-83
2021/12/15 07:50:52;;;;;;;0.88;0.63;;;9.90;99.90;;;;;;5049515;28;20044;-82
2021/12/15 07:53:18;;;;;;;0.70;0.70;;;9.90;99.90;;;;;;5066711;28;20048;-82
2021/12/15 07:55:45;;;;;;;1.27;1.15;;;10.00;99.90;;;;;;5064935;28;20045;-84
2021/12/15 07:58:12;;;;;;;1.10;0.40;;;9.90;99.90;;;;;;5051865;28;20041;-84
2021/12/15 08:00:42;;;;;;;2.65;1.45;;;9.90;99.90;;;;;;5060619;28;20072;-85
2021/12/15 08:03:09;;;;;;;7.72;1.38;;;10.10;99.90;;;;;;5063024;28;20041;-82
2021/12/15 08:05:36;;;;;;;1.40;1.33;;;9.90;99.90;;;;;;5040414;28;20049;-85
2021/12/15 08:08:02;;;;;;;3.17;2.17;;;9.90;99.90;;;;;;5039697;28;20389;-83
2021/12/15 08:10:28;;;;;;;3.60;1.15;;;9.90;99.90;;;;;;5040175;28;20138;-81
2021/12/15 08:12:53;;;;;;;2.42;2.05;;;10.00;99.90;;;;;;5055816;28;20477;-81
2021/12/15 08:15:20;;;;;;;4.60;1.25;;;9.90;99.90;;;;;;5055115;28;20049;-81
2021/12/15 08:17:52;;;;;;;0.60;0.52;;;9.90;99.90;;;;;;5038999;28;20045;-81
2021/12/15 08:20:20;;;;;;;2.97;1.80;;;10.00;99.90;;;;;;5039582;28;20396;-82
2021/12/15 08:22:46;;;;;;;2.55;1.80;;;9.90;99.90;;;;;;5038884;28;20132;-81
2021/12/15 08:25:14;;;;;;;3.38;1.55;;;10.00;99.90;;;;;;5038997;28;20144;-82
2021/12/15 08:27:42;;;;;;;4.07;1.20;;;10.00;99.90;;;;;;5038745;28;20111;-81
2021/12/15 08:30:11;;;;;;;8.98;3.25;;;10.00;99.90;;;;;;5038182;28;20166;-81
2021/12/15 08:32:38;;;;;;;2.70;1.42;;;10.00;99.90;;;;;;5038790;28;20041;-81
2021/12/15 08:35:05;;;;;;;0.88;0.88;;;10.00;99.90;;;;;;5039231;28;20061;-80
2021/12/15 08:37:32;;;;;;;1.05;1.05;;;10.00;99.90;;;;;;5038376;28;20052;-81
2021/12/15 08:39:58;;;;;;;0.68;0.65;;;9.90;99.90;;;;;;5038194;28;20052;-82
2021/12/15 08:42:24;;;;;;;1.73;1.42;;;10.00;99.90;;;;;;5054546;28;20049;-82
2021/12/15 08:44:50;;;;;;;0.88;0.88;;;10.00;99.90;;;;;;5038998;28;20049;-82
2021/12/15 08:47:16;;;;;;;0.60;0.52;;;10.00;99.90;;;;;;5054935;28;20049;-82
2021/12/15 08:49:42;;;;;;;1.60;1.35;;;10.00;99.90;;;;;;5055067;28;20049;-82
2021/12/15 08:52:08;;;;;;;0.75;0.73;;;10.00;99.90;;;;;;5055152;28;20165;-82
2021/12/15 08:54:34;;;;;;;1.05;0.82;;;10.00;99.90;;;;;;5038375;28;20057;-81
2021/12/15 08:57:00;;;;;;;1.45;1.45;;;10.10;99.90;;;;;;5038487;28;20053;-82
2021/12/15 08:59:26;;;;;;;1.08;0.85;;;10.10;99.90;;;;;;5037986;28;20049;-83
2021/12/15 09:01:53;;;;;;;2.00;0.60;;;10.00;99.90;;;;;;5038353;28;20049;-82
2021/12/15 09:04:19;;;;;;;1.55;1.08;;;10.10;99.90;;;;;;5037918;28;20374;-82
2021/12/15 09:06:47;;;;;;;1.98;1.88;;;10.10;99.90;;;;;;5054165;28;20040;-82
2021/12/15 09:09:15;;;;;;;0.73;0.65;;;10.10;99.90;;;;;;5053807;28;20404;-82
2021/12/15 09:11:41;;;;;;;2.05;1.60;;;10.10;99.90;;;;;;5038120;28;20059;-81
2021/12/15 09:14:10;;;;;;;4.00;1.02;;;10.10;99.90;;;;;;5038014;28;20496;-81
2021/12/15 09:16:36;;;;;;;0.82;0.25;;;10.10;99.90;;;;;;5037724;28;20052;-82
2021/12/15 09:19:03;;;;;;;2.17;0.95;;;10.10;99.90;;;;;;5037903;28;20104;-82
2021/12/15 09:21:33;;;;;;;1.00;0.60;;;10.20;99.90;;;;;;5037755;28;20064;-82
2021/12/15 09:24:00;;;;;;;2.28;1.85;;;10.20;99.90;;;;;;5054303;28;20041;-82
2021/12/15 09:26:26;;;;;;;2.85;1.83;;;10.20;99.90;;;;;;5037584;28;20064;-82
2021/12/15 09:28:52;;;;;;;4.18;1.60;;;10.20;99.90;;;;;;5038169;28;20053;-82
2021/12/15 09:31:18;;;;;;;1.63;0.73;;;10.20;99.90;;;;;;5054681;28;20439;-82
2021/12/15 09:33:49;;;;;;;7.13;2.17;;;10.20;99.90;;;;;;5054095;28;20045;-82
2021/12/15 09:36:17;;;;;;;1.08;0.85;;;10.20;99.90;;;;;;5038346;28;20056;-83
2021/12/15 09:38:45;;;;;;;4.03;1.35;;;10.30;99.90;;;;;;5054096;28;20045;-83
2021/12/15 09:41:15;;;;;;;0.47;0.47;;;10.20;99.90;;;;;;5053722;28;20094;-83
2021/12/15 09:43:42;;;;;;;5.25;1.45;;;10.30;99.90;;;;;;5053488;28;20455;-82
2021/12/15 09:46:27;;;;;;;2.78;1.65;;;10.20;99.90;;;;;;5053749;28;20136;-82
2021/12/15 10:02:35;;;;;;;3.28;1.50;;;10.50;99.90;;;;;;5053680;28;20075;-82
2021/12/15 10:05:16;;;;;;;2.15;1.30;;;10.50;99.90;;;;;;5037196;28;20048;-82
2021/12/15 10:19:26;;;;;;;0.10;0.10;;;10.50;99.90;;;;;;5053804;28;20049;-81
2021/12/15 10:22:08;;;;;;;4.13;1.63;;;10.50;99.90;;;;;;5037001;28;20049;-81
2021/12/15 10:24:46;;;;;;;1.38;1.25;;;10.60;99.90;;;;;;5036934;28;20056;-81
2021/12/15 10:27:31;;;;;;;4.20;2.90;;;10.50;99.90;;;;;;5036858;28;20427;-81
2021/12/15 10:30:18;;;;;;;;;;;10.60;99.90;;;;;;5053701;28;20049;-82
2021/12/15 10:32:46;;;;;;;1.17;1.08;;;10.60;99.90;;;;;;5036863;28;19920;-82
2021/12/15 10:35:20;;;;;;;3.00;0.90;;;10.60;99.90;;;;;;5036298;28;20079;-82
2021/12/15 10:38:07;;;;;;;0.90;0.45;;;10.50;99.90;;;;;;5036927;28;20052;-82
2021/12/15 10:40:43;;;;;;;4.40;1.38;;;10.60;99.90;;;;;;5053221;28;20380;-81
2021/12/15 10:43:09;;;;;;;2.92;0.85;;;10.60;99.90;;;;;;5052803;28;20057;-81
2021/12/15 10:46:00;;;;;;;6.15;0.85;;;10.70;99.90;;;;;;5036503;28;20060;-82
2021/12/15 10:48:37;;;;;;;3.10;1.95;;;10.60;99.90;;;;;;5036802;28;20049;-82
2021/12/15 10:51:22;;;;;;;0.85;0.68;;;10.70;99.90;;;;;;5036353;28;20143;-83
2021/12/15 10:53:48;;;;;;;5.63;1.08;;;10.70;99.90;;;;;;5052934;28;20060;-81
2021/12/15 10:56:17;;;;;;;1.50;0.88;;;10.70;99.90;;;;;;5052880;28;20045;-82
2021/12/15 10:58:55;;;;;;;3.92;2.17;;;10.70;99.90;;;;;;5036427;28;20052;-82
2021/12/15 11:01:47;;;;;;;1.50;1.40;;;10.80;99.90;;;;;;5036159;28;20048;-82
2021/12/15 11:04:35;;;;;;;1.65;1.38;;;10.90;99.90;;;;;;5036564;28;20056;-82
2021/12/15 11:07:19;;;;;;;1.42;0.50;;;10.90;99.90;;;;;;4985457;28;20057;-83
2021/12/15 11:09:58;;;;;;;7.47;1.85;;;11.00;99.90;;;;;;5012400;28;20497;-82
2021/12/15 11:12:32;;;;;;;1.05;0.80;;;11.00;99.90;;;;;;4998416;28;20057;-82
2021/12/15 11:15:01;;;;;;;1.42;1.33;;;11.00;99.90;;;;;;4998974;28;20049;-82
2021/12/15 11:17:42;;;;;;;0.40;0.40;;;11.00;99.90;;;;;;4998858;28;20061;-82
2021/12/15 11:20:24;;;;;;;0.47;0.47;;;11.20;99.90;;;;;;5019528;28;20037;-82
2021/12/15 11:23:11;;;;;;;0.93;0.93;;;11.40;99.90;;;;;;5003222;28;20045;-82
2021/12/15 11:25:56;;;;;;;2.30;2.15;;;11.50;99.90;;;;;;5019501;28;20058;-82
2021/12/15 11:28:40;;;;;;;2.88;1.63;;;11.60;99.90;;;;;;5019628;28;20491;-81
2021/12/15 11:31:12;;;;;;;2.63;1.17;;;11.60;99.90;;;;;;5016918;28;20057;-82
2021/12/15 11:33:49;;;;;;;3.00;0.85;;;11.50;99.90;;;;;;5010895;28;20056;-81
2021/12/15 11:36:26;;;;;;;2.33;1.38;;;11.50;99.90;;;;;;5007363;28;20042;-82
2021/12/15 11:38:57;;;;;;;1.92;1.83;;;11.40;99.90;;;;;;4991412;28;20128;-82
2021/12/15 11:41:34;;;;;;;1.35;1.08;;;11.40;99.90;;;;;;5007232;28;20053;-82
2021/12/15 11:44:03;;;;;;;0.75;0.70;;;11.40;99.90;;;;;;5021612;28;20067;-82
2021/12/15 11:46:31;;;;;;;0.75;0.75;;;11.40;99.90;;;;;;5040121;28;20056;-82
2021/12/15 11:49:07;;;;;;;0.32;0.32;;;11.40;99.90;;;;;;5056579;28;20091;-81
2021/12/15 11:51:44;;;;;;;2.13;0.93;;;11.30;99.90;;;;;;5040106;28;20060;-81
2021/12/15 11:54:15;;;;;;;0.65;0.65;;;11.20;99.90;;;;;;5055546;28;20041;-82
2021/12/15 11:56:42;;;;;;;0.57;0.57;;;11.20;99.90;;;;;;5057519;28;20083;-82
2021/12/15 11:59:16;;;;;;;9.23;1.73;;;11.20;99.90;;;;;;5071315;28;20083;-82
2021/12/15 12:02:02;;;;;;;0.85;0.55;;;11.10;99.90;;;;;;5055073;28;20091;-81
2021/12/15 12:04:42;;;;;;;2.95;1.00;;;11.10;99.90;;;;;;5039982;28;20053;-82
2021/12/15 12:07:19;;;;;;;0.32;0.32;;;11.10;99.90;;;;;;5055815;28;20399;-82
2021/12/15 12:09:48;;;;;;;0.80;0.77;;;11.10;99.90;;;;;;5055351;28;20484;-82
2021/12/15 12:12:16;;;;;;;1.27;0.77;;;11.10;99.90;;;;;;5055886;28;20049;-82
2021/12/15 12:14:49;;;;;;;0.30;0.30;;;11.00;99.90;;;;;;5055401;28;20056;-81
2021/12/15 12:17:22;;;;;;;2.33;1.85;;;11.00;99.90;;;;;;5038935;28;20080;-76
2021/12/15 12:19:50;;;;;;;0.10;0.10;;;11.20;99.90;;;;;;5055508;28;20045;-82
2021/12/15 12:22:18;;;;;;;0.73;0.47;;;11.20;99.90;;;;;;5038848;28;20048;-83
2021/12/15 12:24:47;;;;;;;1.38;0.82;;;11.30;99.90;;;;;;5055695;28;20045;-83
2021/12/15 12:27:13;;;;;;;1.80;1.50;;;11.30;99.90;;;;;;5055650;28;20052;-82
2021/12/15 12:29:39;;;;;;;5.45;1.73;;;11.30;99.90;;;;;;5038572;28;20048;-82
2021/12/15 12:32:05;;;;;;;1.55;0.55;;;11.20;99.90;;;;;;5055064;28;20404;-82
2021/12/15 12:34:32;;;;;;;0.88;0.80;;;11.20;99.90;;;;;;5055176;28;20510;-81
2021/12/15 12:36:58;;;;;;;1.23;1.02;;;11.20;99.90;;;;;;5055382;28;20045;-82
2021/12/15 12:39:31;;;;;;;1.30;0.93;;;11.20;99.90;;;;;;5038475;28;20079;-82
2021/12/15 12:41:58;;;;;;;0.73;0.70;;;11.10;99.90;;;;;;5039125;28;20075;-82
2021/12/15 12:44:33;;;;;;;0.32;0.30;;;11.10;99.90;;;;;;5038261;28;20493;-82
2021/12/15 12:47:07;;;;;;;0.40;0.22;;;11.20;99.90;;;;;;5038569;28;20041;-82
2021/12/15 13:00:28;;;;;;;0.95;0.82;;;11.10;99.90;;;;;;5054740;28;20397;-82
2021/12/15 13:03:04;;;;;;;0.55;0.30;;;11.00;99.90;;;;;;5038133;28;20037;-82
2021/12/15 13:05:35;;;;;;;0.32;0.32;;;11.00;99.90;;;;;;5038155;28;20486;-82
2021/12/15 13:08:04;;;;;;;10.27;1.30;;;11.00;99.90;;;;;;5037879;28;20102;-83
2021/12/15 13:10:48;;;;;;;0.47;0.47;;;11.00;99.90;;;;;;5054458;28;20037;-82
2021/12/15 13:13:16;;;;;;;0.68;0.32;;;10.90;99.90;;;;;;5037739;28;20053;-82
2021/12/15 13:15:50;;;;;;;2.72;1.13;;;11.00;99.90;;;;;;5037677;28;20053;-82
2021/12/15 13:18:17;;;;;;;0.25;0.25;;;11.00;99.90;;;;;;5054711;28;20065;-84
2021/12/15 13:20:59;;;;;;;1.27;0.75;;;11.00;99.90;;;;;;5038323;28;20053;-84
2021/12/15 13:23:42;;;;;;;0.15;0.05;;;11.00;99.90;;;;;;5037957;28;20057;-84
2021/12/15 13:29:21;;;;;;;0.35;0.35;;;11.00;99.90;;;;;;5053955;28;20140;-84
2021/12/15 13:31:56;;;;;;;7.55;1.30;;;10.90;99.90;;;;;;5038335;28;20718;-84
2021/12/15 13:34:40;;;;;;;0.43;0.43;;;10.90;99.90;;;;;;5053850;28;20076;-84
2021/12/15 13:37:07;;;;;;;0.90;0.45;;;10.90;99.90;;;;;;5038991;28;20045;-84
2021/12/15 13:39:46;;;;;;;1.00;0.82;;;10.90;99.90;;;;;;5055182;28;20048;-84
2021/12/15 13:42:15;;;;;;;0.35;0.35;;;10.90;99.90;;;;;;5054401;28;20052;-83
2021/12/15 13:44:47;;;;;;;4.47;1.35;;;10.90;99.90;;;;;;5038464;28;20438;-84
2021/12/15 13:47:24;;;;;;;0.30;0.20;;;10.80;99.90;;;;;;5038713;28;20124;-85
2021/12/15 13:49:58;;;;;;;0.13;0.13;;;10.80;99.90;;;;;;5054699;28;20084;-84
2021/12/15 13:52:45;;;;;;;1.08;0.90;;;10.80;99.90;;;;;;5038111;28;20083;-84
2021/12/15 13:55:31;;;;;;;0.10;0.10;;;10.80;99.90;;;;;;5037919;28;20087;-84
2021/12/15 13:57:57;;;;;;;0.03;0.03;;;10.70;99.90;;;;;;5038068;28;20123;-84
2021/12/15 14:00:57;;;;;;;0.00;0.00;;;10.80;99.90;;;;;;5038358;28;20476;-84
2021/12/15 14:03:25;;;;;;;1.65;0.35;;;10.80;99.90;;;;;;4997514;28;20405;-85
2021/12/15 14:06:05;;;;;;;0.00;0.00;;;10.80;99.90;;;;;;4981114;28;20050;-85
2021/12/15 14:09:05;;;;;;;0.38;0.20;;;10.70;99.90;;;;;;4997304;28;20405;-85
2021/12/15 14:11:33;;;;;;;0.17;0.17;;;10.70;99.90;;;;;;4923920;29;20109;-84
2021/12/15 14:14:20;;;;;;;1.38;0.38;;;10.70;99.90;;;;;;4924229;29;20111;-83
2021/12/15 14:16:52;;;;;;;1.60;0.70;;;10.70;99.90;;;;;;4922936;29;20134;-82
2021/12/15 14:19:22;;;;;;;0.90;0.55;;;10.70;99.90;;;;;;4938336;29;20086;-83
2021/12/15 14:21:50;;;;;;;0.17;0.17;;;10.70;99.90;;;;;;4922740;29;20108;-85
2021/12/15 14:24:18;;;;;;;0.00;0.00;;;10.70;99.90;;;;;;4938261;29;20376;-83
2021/12/15 14:26:44;;;;;;;0.10;0.10;;;10.60;99.90;;;;;;4922507;29;20220;-84
2021/12/15 14:29:19;;;;;;;0.00;0.00;;;10.50;99.90;;;;;;4938294;29;20098;-85
2021/12/15 14:31:50;;;;;;;4.32;0.98;;;10.60;99.90;;;;;;4922680;29;20414;-86
2021/12/15 14:34:27;;;;;;;0.55;0.25;;;10.70;99.90;;;;;;4922609;29;20118;-84